Time;durP1;ratioP1;P1;durP2;ratioP2;P2;SDS_P1;SDS_P2;PMS_P1;PMS_P2;Temp;Humidity;BMP_temperature;BMP_pressure;BME280_temperature;BME280_humidity;BME280_pressure;Samples;Min_cycle;Max_cycle;Signal;HPM_P1;HPM_P2
2024/01/30 00:01:25;;;;;;;13.45;6.85;;;8.10;99.90;;;;;;6126213;23;20728;-89
2024/01/30 00:03:51;;;;;;;14.02;7.78;;;8.10;99.90;;;;;;6126342;23;20574;-89
2024/01/30 00:06:23;;;;;;;14.73;7.00;;;8.10;99.90;;;;;;6102670;23;20020;-90
2024/01/30 00:08:49;;;;;;;11.48;6.07;;;8.20;99.90;;;;;;6102119;23;20037;-90
2024/01/30 00:11:16;;;;;;;15.15;7.35;;;8.10;99.90;;;;;;6126676;23;20017;-90
2024/01/30 00:13:41;;;;;;;12.85;6.63;;;8.20;99.90;;;;;;6126854;23;20014;-89
2024/01/30 00:16:09;;;;;;;12.57;7.20;;;8.20;99.90;;;;;;6126257;23;20010;-89
2024/01/30 00:18:34;;;;;;;15.43;6.90;;;8.20;99.90;;;;;;6152278;23;20014;-90
2024/01/30 00:21:00;;;;;;;13.40;7.22;;;8.20;99.90;;;;;;6101609;23;20017;-90
2024/01/30 00:23:25;;;;;;;13.35;6.88;;;8.20;99.90;;;;;;6126760;23;20407;-89
2024/01/30 00:25:51;;;;;;;16.80;6.78;;;8.20;99.90;;;;;;6101467;23;20471;-90
2024/01/30 00:28:17;;;;;;;13.75;7.55;;;8.20;99.90;;;;;;6126872;23;20175;-90
2024/01/30 00:30:42;;;;;;;16.38;6.50;;;8.20;99.90;;;;;;6152759;23;20009;-90
2024/01/30 00:33:09;;;;;;;15.50;7.03;;;8.20;99.90;;;;;;6126552;23;20017;-90
2024/01/30 00:35:35;;;;;;;13.15;6.82;;;8.20;99.90;;;;;;6152422;23;20014;-90
2024/01/30 00:38:01;;;;;;;14.48;7.25;;;8.20;99.90;;;;;;6126582;23;20005;-90
2024/01/30 00:40:26;;;;;;;18.20;6.85;;;8.20;99.90;;;;;;6101733;23;20009;-90
2024/01/30 00:42:52;;;;;;;15.13;7.93;;;8.20;99.90;;;;;;6126800;23;20013;-90
2024/01/30 00:45:18;;;;;;;13.43;6.95;;;8.20;99.90;;;;;;6102183;23;20515;-90
2024/01/30 00:47:44;;;;;;;11.48;6.57;;;8.20;99.90;;;;;;6102689;23;20016;-90
2024/01/30 00:50:11;;;;;;;12.52;6.70;;;8.20;99.90;;;;;;6102303;23;20822;-91
2024/01/30 00:52:36;;;;;;;15.57;6.95;;;8.20;99.90;;;;;;6126501;23;20068;-90
2024/01/30 00:55:03;;;;;;;14.13;6.13;;;8.20;99.90;;;;;;6100994;23;20446;-89
2024/01/30 00:57:28;;;;;;;13.88;6.88;;;8.20;99.90;;;;;;6101387;23;20014;-90
2024/01/30 00:59:57;;;;;;;16.70;8.23;;;8.20;99.90;;;;;;6152442;23;20019;-90
2024/01/30 01:02:23;;;;;;;14.68;7.10;;;8.20;99.90;;;;;;6101156;23;20013;-90
2024/01/30 01:04:49;;;;;;;13.63;6.15;;;8.20;99.90;;;;;;6125897;23;20013;-90
2024/01/30 01:07:15;;;;;;;12.82;6.35;;;8.20;99.90;;;;;;6101734;23;20023;-90
2024/01/30 01:09:41;;;;;;;13.10;6.95;;;8.20;99.90;;;;;;6126412;23;20019;-90
2024/01/30 01:12:06;;;;;;;15.52;7.03;;;8.20;99.90;;;;;;6101670;23;20403;-90
2024/01/30 01:14:32;;;;;;;12.80;6.85;;;8.20;99.90;;;;;;6126412;23;20010;-90
2024/01/30 01:16:58;;;;;;;14.77;6.97;;;8.20;99.90;;;;;;6126328;23;20009;-91
2024/01/30 01:19:23;;;;;;;11.52;6.70;;;8.20;99.90;;;;;;6125644;23;20017;-90
2024/01/30 01:21:49;;;;;;;13.95;5.68;;;8.20;99.90;;;;;;6126391;23;20017;-90
2024/01/30 01:24:14;;;;;;;10.95;5.65;;;8.10;99.90;;;;;;6125656;23;20017;-90
2024/01/30 01:26:40;;;;;;;14.77;7.40;;;8.20;99.90;;;;;;6101749;23;20076;-90
2024/01/30 01:29:11;;;;;;;13.60;7.38;;;8.20;99.90;;;;;;6101617;23;20018;-91
2024/01/30 01:31:43;;;;;;;15.23;7.40;;;8.20;99.90;;;;;;6126854;23;20014;-90
2024/01/30 01:34:12;;;;;;;12.88;7.03;;;8.10;99.90;;;;;;6126362;23;20009;-90
2024/01/30 01:36:39;;;;;;;15.73;7.38;;;8.20;99.90;;;;;;6101399;23;20355;-90
2024/01/30 01:39:04;;;;;;;15.32;7.03;;;8.20;99.90;;;;;;6126903;23;20073;-90
2024/01/30 01:41:34;;;;;;;12.90;6.28;;;8.10;99.90;;;;;;6126677;23;20611;-90
2024/01/30 01:44:00;;;;;;;14.45;6.65;;;8.20;99.90;;;;;;6126276;23;20021;-90
2024/01/30 01:46:33;;;;;;;15.35;7.05;;;8.20;99.90;;;;;;6101918;23;20018;-90
2024/01/30 01:49:04;;;;;;;11.85;6.30;;;8.20;99.90;;;;;;6100396;23;20020;-90
2024/01/30 01:51:33;;;;;;;12.52;6.22;;;8.10;99.90;;;;;;6100840;23;20518;-90
2024/01/30 01:54:01;;;;;;;13.02;6.63;;;8.20;99.90;;;;;;6124608;23;20009;-90
2024/01/30 01:56:28;;;;;;;14.27;6.82;;;8.20;99.90;;;;;;6125087;23;20013;-91
2024/01/30 01:58:55;;;;;;;11.43;5.43;;;8.10;99.90;;;;;;6100741;23;20355;-90
2024/01/30 02:01:21;;;;;;;15.45;6.25;;;8.10;99.90;;;;;;6101096;23;20021;-90
2024/01/30 02:03:47;;;;;;;12.75;6.82;;;8.10;99.90;;;;;;6126180;23;20043;-90
2024/01/30 02:06:14;;;;;;;13.40;6.32;;;8.20;99.90;;;;;;6101442;23;20024;-90
2024/01/30 02:08:40;;;;;;;13.27;6.68;;;8.20;99.90;;;;;;6125900;23;20024;-90
2024/01/30 02:11:06;;;;;;;18.63;6.68;;;8.20;99.90;;;;;;6125807;23;20045;-90
2024/01/30 02:13:32;;;;;;;13.23;6.63;;;8.10;99.90;;;;;;6125917;23;20013;-90
2024/01/30 02:15:57;;;;;;;11.55;7.00;;;8.10;99.90;;;;;;6125861;23;20020;-90
2024/01/30 02:18:23;;;;;;;13.20;6.43;;;8.10;99.90;;;;;;6126472;23;20132;-90
2024/01/30 02:20:51;;;;;;;14.75;6.93;;;8.10;99.90;;;;;;6101367;23;20041;-90
2024/01/30 02:23:17;;;;;;;14.23;6.80;;;8.10;99.90;;;;;;6100776;23;20041;-90
2024/01/30 02:25:45;;;;;;;13.73;6.55;;;8.10;99.90;;;;;;6100027;23;20018;-90
2024/01/30 02:28:14;;;;;;;12.38;6.15;;;8.10;99.90;;;;;;6125780;23;20018;-90
2024/01/30 02:30:42;;;;;;;12.38;6.20;;;8.10;99.90;;;;;;6125522;23;20013;-91
2024/01/30 02:33:08;;;;;;;15.57;6.55;;;8.10;99.90;;;;;;6125410;23;20086;-91
2024/01/30 02:35:34;;;;;;;14.68;6.88;;;8.10;99.90;;;;;;6101454;23;20053;-90
2024/01/30 02:38:00;;;;;;;14.50;6.95;;;8.10;99.90;;;;;;6126119;23;20092;-90
2024/01/30 02:40:25;;;;;;;12.77;7.05;;;8.20;99.90;;;;;;6126356;23;20698;-91
2024/01/30 02:42:51;;;;;;;14.20;6.78;;;8.10;99.90;;;;;;6126061;23;20085;-90
2024/01/30 02:45:17;;;;;;;13.68;6.38;;;8.10;99.90;;;;;;6101675;23;20408;-91
2024/01/30 02:47:42;;;;;;;11.45;6.53;;;8.10;99.90;;;;;;6101510;23;20355;-91
2024/01/30 02:50:08;;;;;;;17.08;7.10;;;8.10;99.90;;;;;;6125485;23;20097;-91
2024/01/30 02:52:34;;;;;;;12.38;7.07;;;8.10;99.90;;;;;;6151813;23;20041;-90
2024/01/30 02:55:00;;;;;;;13.10;6.55;;;8.10;99.90;;;;;;6124290;23;20042;-90
2024/01/30 02:57:25;;;;;;;11.70;5.85;;;8.20;99.90;;;;;;6100488;23;20613;-90
2024/01/30 02:59:51;;;;;;;12.02;6.32;;;8.10;99.90;;;;;;6100272;23;20100;-90
2024/01/30 03:02:17;;;;;;;13.07;6.88;;;8.10;99.90;;;;;;6125384;23;20513;-90
2024/01/30 03:04:43;;;;;;;12.90;5.85;;;8.10;99.90;;;;;;6101015;23;20351;-90
2024/01/30 03:07:09;;;;;;;12.07;5.85;;;8.10;99.90;;;;;;6126899;23;20013;-90
2024/01/30 03:09:35;;;;;;;12.82;6.55;;;8.10;99.90;;;;;;6126018;23;20530;-90
2024/01/30 03:12:00;;;;;;;15.02;7.07;;;8.20;99.90;;;;;;6151601;23;20017;-90
2024/01/30 03:14:26;;;;;;;17.23;6.03;;;8.10;99.90;;;;;;6125152;23;20065;-89
2024/01/30 03:16:52;;;;;;;14.25;5.60;;;8.10;99.90;;;;;;6125381;23;20009;-90
2024/01/30 03:19:18;;;;;;;13.80;6.55;;;8.20;99.90;;;;;;6125725;23;20360;-89
2024/01/30 03:21:44;;;;;;;13.88;6.10;;;8.20;99.90;;;;;;6100727;23;20172;-90
2024/01/30 03:24:09;;;;;;;12.10;5.65;;;8.20;99.90;;;;;;6099923;23;20463;-89
2024/01/30 03:26:35;;;;;;;18.50;7.05;;;8.20;99.90;;;;;;6124993;23;20456;-89
2024/01/30 03:29:01;;;;;;;20.77;6.90;;;8.20;99.90;;;;;;6125440;23;20095;-90
2024/01/30 03:31:27;;;;;;;13.70;6.60;;;8.20;99.90;;;;;;6100716;23;20014;-89
2024/01/30 03:33:52;;;;;;;14.98;7.13;;;8.20;99.90;;;;;;6125587;23;20197;-90
2024/01/30 03:36:18;;;;;;;15.40;7.00;;;8.20;99.90;;;;;;6100681;23;20202;-90
2024/01/30 03:38:44;;;;;;;13.07;6.20;;;8.20;99.90;;;;;;6101260;23;20014;-89
2024/01/30 03:41:10;;;;;;;13.05;6.60;;;8.10;99.90;;;;;;6125306;23;20535;-89
2024/01/30 03:43:36;;;;;;;14.60;7.13;;;8.10;99.90;;;;;;6125019;23;20020;-89
2024/01/30 03:46:02;;;;;;;14.98;6.97;;;8.10;99.90;;;;;;6100533;23;20092;-90
2024/01/30 03:48:29;;;;;;;14.68;6.30;;;8.10;99.90;;;;;;6125244;23;20014;-90
2024/01/30 03:50:55;;;;;;;13.10;6.13;;;8.10;99.90;;;;;;6151425;23;20013;-90
2024/01/30 03:53:20;;;;;;;14.95;7.15;;;8.20;99.90;;;;;;6100196;23;20049;-90
2024/01/30 03:55:46;;;;;;;12.65;6.38;;;8.10;99.90;;;;;;6127258;23;20005;-90
2024/01/30 03:58:12;;;;;;;15.07;6.85;;;8.20;99.90;;;;;;6126857;23;20006;-90
2024/01/30 04:00:37;;;;;;;12.70;6.93;;;8.20;99.90;;;;;;6102571;23;20022;-89
2024/01/30 04:03:03;;;;;;;13.90;7.10;;;8.20;99.90;;;;;;6153015;23;20013;-89
2024/01/30 04:05:29;;;;;;;13.38;6.13;;;8.20;99.90;;;;;;6153067;23;20383;-90
2024/01/30 04:07:55;;;;;;;14.23;6.13;;;8.20;99.90;;;;;;6102770;23;20018;-89
2024/01/30 04:10:20;;;;;;;13.40;7.45;;;8.20;99.90;;;;;;6153566;23;20016;-89
2024/01/30 04:12:46;;;;;;;12.38;6.70;;;8.20;99.90;;;;;;6127156;23;20374;-90
2024/01/30 04:15:13;;;;;;;14.85;7.97;;;8.20;99.90;;;;;;6101802;23;20009;-90
2024/01/30 04:17:39;;;;;;;14.35;7.22;;;8.20;99.90;;;;;;6153608;23;20013;-90
2024/01/30 04:20:06;;;;;;;15.90;7.50;;;8.20;99.90;;;;;;6102527;23;20017;-89
2024/01/30 04:22:31;;;;;;;15.30;7.72;;;8.30;99.90;;;;;;6102587;23;20013;-89
2024/01/30 04:24:57;;;;;;;13.70;6.60;;;8.30;99.90;;;;;;6126386;23;20076;-89
2024/01/30 04:27:22;;;;;;;14.30;6.90;;;8.30;99.90;;;;;;6102480;23;20059;-90
2024/01/30 04:29:48;;;;;;;13.75;6.22;;;8.30;99.90;;;;;;6153106;23;20096;-89
2024/01/30 04:32:14;;;;;;;15.50;5.95;;;8.30;99.90;;;;;;6126828;23;20113;-90
2024/01/30 04:34:40;;;;;;;13.85;6.22;;;8.30;99.90;;;;;;6126537;23;20020;-90
2024/01/30 04:37:05;;;;;;;12.88;6.80;;;8.30;99.90;;;;;;6102604;23;20467;-89
2024/01/30 04:39:33;;;;;;;14.82;6.57;;;8.30;99.90;;;;;;6102346;23;20021;-90
2024/01/30 04:41:59;;;;;;;15.35;6.80;;;8.30;99.90;;;;;;6126387;23;20072;-89
2024/01/30 04:44:25;;;;;;;16.88;7.32;;;8.30;99.90;;;;;;6102271;23;20013;-90
2024/01/30 04:46:50;;;;;;;13.68;6.97;;;8.30;99.90;;;;;;6126472;23;20121;-90
2024/01/30 04:49:16;;;;;;;13.98;7.05;;;8.30;99.90;;;;;;6126525;23;20068;-90
2024/01/30 04:51:42;;;;;;;19.17;7.43;;;8.30;99.90;;;;;;6125836;23;20063;-90
2024/01/30 04:54:07;;;;;;;14.55;7.40;;;8.30;99.90;;;;;;6126500;23;20040;-90
2024/01/30 04:56:34;;;;;;;13.00;7.15;;;8.40;99.90;;;;;;6126756;23;20009;-90
2024/01/30 04:59:00;;;;;;;14.57;7.78;;;8.40;99.90;;;;;;6126178;23;20018;-90
2024/01/30 05:01:26;;;;;;;15.30;7.05;;;8.40;99.90;;;;;;6102542;23;20016;-90
2024/01/30 05:03:51;;;;;;;15.20;8.48;;;8.40;99.90;;;;;;6102407;23;20051;-90
2024/01/30 05:06:27;;;;;;;16.30;7.55;;;8.40;99.90;;;;;;6102152;23;20024;-89
2024/01/30 05:08:53;;;;;;;13.20;6.72;;;8.40;99.90;;;;;;6126344;23;20010;-89
2024/01/30 05:11:18;;;;;;;13.82;7.00;;;8.40;99.90;;;;;;6102312;23;20493;-90
2024/01/30 05:13:44;;;;;;;14.25;6.32;;;8.40;99.90;;;;;;6152385;23;20009;-90
2024/01/30 05:16:10;;;;;;;13.52;5.97;;;8.40;99.90;;;;;;6151659;23;20013;-90
2024/01/30 05:18:35;;;;;;;14.07;6.72;;;8.40;99.90;;;;;;6152568;23;20013;-90
2024/01/30 05:21:02;;;;;;;15.18;7.20;;;8.40;99.90;;;;;;6125414;23;20017;-90
2024/01/30 05:23:28;;;;;;;14.55;7.45;;;8.40;99.90;;;;;;6152009;23;20016;-90
2024/01/30 05:25:53;;;;;;;12.50;6.78;;;8.40;99.90;;;;;;6101431;23;20065;-89
2024/01/30 05:28:19;;;;;;;15.88;8.93;;;8.40;99.90;;;;;;6126254;23;20065;-89
2024/01/30 05:30:45;;;;;;;13.48;7.47;;;8.40;99.90;;;;;;6125684;23;20013;-90
2024/01/30 05:33:12;;;;;;;17.63;8.38;;;8.40;99.90;;;;;;6126266;23;20014;-86
2024/01/30 05:35:38;;;;;;;14.75;7.40;;;8.40;99.90;;;;;;6126162;23;20013;-90
2024/01/30 05:38:04;;;;;;;13.02;7.70;;;8.40;99.90;;;;;;6101414;23;20009;-90
2024/01/30 05:40:30;;;;;;;16.05;8.13;;;8.40;99.90;;;;;;6101728;23;20045;-89
2024/01/30 05:42:56;;;;;;;14.00;6.72;;;8.40;99.90;;;;;;6101844;23;20459;-88
2024/01/30 05:45:23;;;;;;;14.88;8.02;;;8.40;99.90;;;;;;6125094;23;20017;-87
2024/01/30 05:47:48;;;;;;;12.77;6.75;;;8.40;99.90;;;;;;6101116;23;20064;-90
2024/01/30 05:50:14;;;;;;;14.30;7.57;;;8.40;99.90;;;;;;6100622;23;20041;-90
2024/01/30 05:52:40;;;;;;;14.65;7.28;;;8.40;99.90;;;;;;6125840;23;20092;-90
2024/01/30 05:55:06;;;;;;;13.07;6.60;;;8.40;99.90;;;;;;6099479;23;20108;-90
2024/01/30 05:57:32;;;;;;;15.32;6.95;;;8.40;99.90;;;;;;6125393;23;20010;-90
2024/01/30 05:59:58;;;;;;;12.25;6.15;;;8.40;99.90;;;;;;6125714;23;20017;-90
2024/01/30 06:02:23;;;;;;;13.63;6.35;;;8.40;99.90;;;;;;6102007;23;20470;-89
2024/01/30 06:04:49;;;;;;;15.20;7.35;;;8.40;99.90;;;;;;6101469;23;20028;-90
2024/01/30 06:07:15;;;;;;;14.48;7.20;;;8.40;99.90;;;;;;6125935;23;20017;-90
2024/01/30 06:09:40;;;;;;;15.20;8.15;;;8.50;99.90;;;;;;6125911;23;20017;-90
2024/01/30 06:12:06;;;;;;;14.60;6.75;;;8.50;99.90;;;;;;6126315;23;20372;-90
2024/01/30 06:14:32;;;;;;;15.85;7.45;;;8.50;99.90;;;;;;6125593;23;20020;-90
2024/01/30 06:16:59;;;;;;;15.68;7.13;;;8.50;99.90;;;;;;6100359;23;20009;-90
2024/01/30 06:19:25;;;;;;;13.20;7.20;;;8.50;99.90;;;;;;6151452;23;20395;-89
2024/01/30 06:21:50;;;;;;;15.88;7.20;;;8.50;99.90;;;;;;6100258;23;20132;-91
2024/01/30 06:24:16;;;;;;;14.82;5.88;;;8.50;99.90;;;;;;6123858;23;20017;-90
2024/01/30 06:26:42;;;;;;;13.45;7.50;;;8.50;99.90;;;;;;6124648;23;20049;-91
2024/01/30 06:29:08;;;;;;;13.13;6.88;;;8.50;99.90;;;;;;6124566;23;20438;-91
2024/01/30 06:31:42;;;;;;;21.73;7.65;;;8.50;99.90;;;;;;6125610;23;20466;-91
2024/01/30 06:34:09;;;;;;;10.32;5.70;;;8.50;99.90;;;;;;6126183;23;20466;-91
2024/01/30 06:36:35;;;;;;;14.10;7.20;;;8.60;99.90;;;;;;6125585;23;20113;-90
2024/01/30 06:39:02;;;;;;;14.98;6.57;;;8.60;99.90;;;;;;6151577;23;20486;-91
2024/01/30 06:41:28;;;;;;;13.07;7.07;;;8.60;99.90;;;;;;6100967;23;20093;-90
2024/01/30 06:43:54;;;;;;;14.20;6.95;;;8.60;99.90;;;;;;6125480;23;20060;-91
2024/01/30 06:46:19;;;;;;;11.82;6.35;;;8.70;99.90;;;;;;6125341;23;20017;-91
2024/01/30 06:48:45;;;;;;;13.35;6.50;;;8.70;99.90;;;;;;6151952;23;20613;-91
2024/01/30 06:51:12;;;;;;;13.35;6.22;;;8.80;99.90;;;;;;6125010;23;20096;-91
2024/01/30 06:53:38;;;;;;;10.63;5.95;;;8.80;99.90;;;;;;6100617;23;20025;-91
2024/01/30 06:56:03;;;;;;;16.40;6.75;;;8.80;99.90;;;;;;6100375;23;20009;-91
2024/01/30 06:58:29;;;;;;;12.88;7.38;;;8.70;99.90;;;;;;6151289;23;20052;-91
2024/01/30 07:00:55;;;;;;;14.10;7.25;;;8.80;99.90;;;;;;6126087;23;20482;-91
2024/01/30 07:03:21;;;;;;;12.32;5.95;;;8.80;99.90;;;;;;6125790;23;20022;-91
2024/01/30 07:05:47;;;;;;;15.30;7.30;;;8.80;99.90;;;;;;6101061;23;20020;-90
2024/01/30 07:08:13;;;;;;;14.32;6.88;;;8.80;99.90;;;;;;6151692;23;20017;-90
2024/01/30 07:10:38;;;;;;;13.15;6.50;;;8.80;99.90;;;;;;6100465;23;20014;-91
2024/01/30 07:13:05;;;;;;;11.32;6.68;;;8.80;99.90;;;;;;6125375;23;20009;-91
2024/01/30 07:15:31;;;;;;;13.75;6.50;;;8.80;99.90;;;;;;6100687;23;20482;-90
2024/01/30 07:17:57;;;;;;;13.35;5.30;;;8.70;99.90;;;;;;6101183;23;20049;-90
2024/01/30 07:20:22;;;;;;;14.15;6.50;;;8.80;99.90;;;;;;6124748;23;20014;-90
2024/01/30 07:22:48;;;;;;;16.17;7.13;;;8.70;99.90;;;;;;6124764;23;20021;-91
2024/01/30 07:25:14;;;;;;;16.95;7.50;;;8.80;99.90;;;;;;6124588;23;20395;-90
2024/01/30 07:27:40;;;;;;;12.75;6.82;;;8.80;99.90;;;;;;6100527;23;20014;-92
2024/01/30 07:30:06;;;;;;;14.45;6.90;;;8.80;99.90;;;;;;6126389;23;20068;-90
2024/01/30 07:32:32;;;;;;;12.25;6.88;;;8.80;99.90;;;;;;6103691;23;20064;-90
2024/01/30 07:34:58;;;;;;;16.10;6.40;;;8.80;99.90;;;;;;6103370;23;20013;-91
2024/01/30 07:37:24;;;;;;;14.95;6.70;;;8.80;99.90;;;;;;6128048;23;20014;-89
2024/01/30 07:39:49;;;;;;;13.27;6.22;;;8.80;99.90;;;;;;6127928;23;20048;-90
2024/01/30 07:42:16;;;;;;;13.02;7.00;;;8.80;99.90;;;;;;6103798;23;20017;-89
2024/01/30 07:44:41;;;;;;;13.85;6.93;;;8.80;99.90;;;;;;6103826;23;20068;-90
2024/01/30 07:47:07;;;;;;;13.68;6.25;;;8.90;99.90;;;;;;6103948;23;20013;-91
2024/01/30 07:49:33;;;;;;;11.63;5.78;;;8.90;99.90;;;;;;6102915;23;20014;-91
2024/01/30 07:52:02;;;;;;;14.20;6.70;;;8.90;99.90;;;;;;6126348;23;20013;-89
2024/01/30 07:54:27;;;;;;;10.32;5.45;;;8.90;99.90;;;;;;6101742;23;20343;-91
2024/01/30 07:56:53;;;;;;;14.90;6.30;;;8.90;99.90;;;;;;6102473;23;20422;-91
2024/01/30 07:59:21;;;;;;;12.18;5.07;;;8.90;99.90;;;;;;6127259;23;20017;-91
2024/01/30 08:01:47;;;;;;;13.57;6.53;;;8.90;99.90;;;;;;6102824;23;20022;-91
2024/01/30 08:04:12;;;;;;;11.00;5.10;;;9.00;99.90;;;;;;6102000;23;20021;-90
2024/01/30 08:06:38;;;;;;;11.85;6.38;;;9.00;99.90;;;;;;6101957;23;20009;-90
2024/01/30 08:09:04;;;;;;;11.43;6.32;;;9.00;99.90;;;;;;6126484;23;20092;-90
2024/01/30 08:11:33;;;;;;;14.25;5.75;;;9.00;99.90;;;;;;6123426;23;20014;-90
2024/01/30 08:13:58;;;;;;;13.07;5.13;;;9.10;99.90;;;;;;6099392;23;20005;-90
2024/01/30 08:16:24;;;;;;;11.52;4.97;;;9.10;99.90;;;;;;6099936;23;20399;-90
2024/01/30 08:18:50;;;;;;;11.73;5.95;;;9.10;99.90;;;;;;6101352;23;20068;-90
2024/01/30 08:21:15;;;;;;;9.23;4.53;;;9.10;99.90;;;;;;6126274;23;20118;-90
2024/01/30 08:23:42;;;;;;;11.05;4.88;;;9.10;99.90;;;;;;6152224;23;20390;-90
2024/01/30 08:26:08;;;;;;;14.32;6.18;;;9.10;99.90;;;;;;6126192;23;20005;-90
2024/01/30 08:28:34;;;;;;;12.68;5.93;;;9.20;99.90;;;;;;6125345;23;20024;-91
2024/01/30 08:30:59;;;;;;;9.43;4.32;;;9.10;99.90;;;;;;6102301;23;20065;-91
2024/01/30 08:33:25;;;;;;;14.65;5.72;;;9.20;99.90;;;;;;6101138;23;20033;-90
2024/01/30 08:35:51;;;;;;;12.27;6.30;;;9.20;99.90;;;;;;6125382;23;20090;-90
2024/01/30 08:38:16;;;;;;;13.27;6.28;;;9.20;99.90;;;;;;6125454;23;20025;-91
2024/01/30 08:40:42;;;;;;;12.63;6.25;;;9.20;99.90;;;;;;6100564;23;20156;-90
2024/01/30 08:43:10;;;;;;;9.77;4.93;;;9.20;99.90;;;;;;6101811;23;20463;-90
2024/01/30 08:45:35;;;;;;;13.93;6.82;;;9.30;99.90;;;;;;6125740;23;20016;-90
2024/01/30 08:48:01;;;;;;;10.02;4.65;;;9.30;99.90;;;;;;6101211;23;20466;-91
2024/01/30 08:50:27;;;;;;;12.80;5.78;;;9.30;99.90;;;;;;6126309;23;20018;-91
2024/01/30 08:52:52;;;;;;;14.85;6.30;;;9.40;99.90;;;;;;6124999;23;20667;-91
2024/01/30 08:55:18;;;;;;;14.02;7.05;;;9.40;99.90;;;;;;6125785;23;20396;-90
2024/01/30 08:57:43;;;;;;;12.07;5.50;;;9.40;99.90;;;;;;6101569;23;20020;-91
2024/01/30 09:00:11;;;;;;;13.20;4.95;;;9.50;99.90;;;;;;6101082;23;20019;-90
2024/01/30 09:02:36;;;;;;;10.60;5.47;;;9.50;99.90;;;;;;6126537;23;20068;-91
2024/01/30 09:05:02;;;;;;;9.40;4.80;;;9.50;99.90;;;;;;6151755;23;20018;-90
2024/01/30 09:07:28;;;;;;;13.32;5.43;;;9.60;99.90;;;;;;6151918;23;20072;-91
2024/01/30 09:09:53;;;;;;;11.23;5.20;;;9.60;99.90;;;;;;6151788;23;20096;-91
2024/01/30 09:12:19;;;;;;;13.10;6.43;;;9.60;99.90;;;;;;6126403;23;20032;-91
2024/01/30 09:14:45;;;;;;;13.50;5.68;;;9.70;99.90;;;;;;6151663;23;20021;-90
2024/01/30 09:17:11;;;;;;;12.88;5.82;;;9.70;99.90;;;;;;6100994;23;20096;-91
2024/01/30 09:19:36;;;;;;;10.80;4.22;;;9.70;99.90;;;;;;6151871;23;20148;-90
2024/01/30 09:22:02;;;;;;;11.77;4.93;;;9.70;99.90;;;;;;6124045;23;20068;-90
2024/01/30 09:24:28;;;;;;;8.32;3.67;;;9.70;99.90;;;;;;6151495;23;20017;-90
2024/01/30 09:26:54;;;;;;;13.25;5.55;;;9.70;99.90;;;;;;6125354;23;20013;-91
2024/01/30 09:29:19;;;;;;;7.85;4.63;;;9.70;99.90;;;;;;6150757;23;20025;-91
2024/01/30 09:31:45;;;;;;;11.90;5.05;;;9.80;99.90;;;;;;6101448;23;20014;-91
2024/01/30 09:34:12;;;;;;;14.00;6.00;;;9.80;99.90;;;;;;6125681;23;20016;-91
2024/01/30 09:36:37;;;;;;;12.73;5.63;;;9.80;99.90;;;;;;6126142;23;20013;-91
2024/01/30 09:39:04;;;;;;;13.02;5.88;;;9.80;99.90;;;;;;6101664;23;20052;-91
2024/01/30 09:41:32;;;;;;;14.00;6.47;;;9.90;99.90;;;;;;6101320;23;20014;-91
2024/01/30 09:43:59;;;;;;;13.18;6.03;;;9.90;99.90;;;;;;6101023;23;20076;-92
2024/01/30 09:46:28;;;;;;;12.77;5.28;;;9.90;99.90;;;;;;6150659;23;20079;-91
2024/01/30 09:48:55;;;;;;;12.10;5.97;;;9.90;99.90;;;;;;6101796;23;20044;-91
2024/01/30 09:51:22;;;;;;;10.82;5.97;;;9.90;99.90;;;;;;6125095;23;20092;-91
2024/01/30 09:53:48;;;;;;;11.38;5.80;;;9.90;99.90;;;;;;6124019;23;20009;-92
2024/01/30 09:56:14;;;;;;;12.18;5.90;;;9.90;99.90;;;;;;6099734;23;20028;-91
2024/01/30 09:58:40;;;;;;;12.35;6.13;;;9.90;99.90;;;;;;6124466;23;20444;-91
2024/01/30 10:01:06;;;;;;;12.63;5.90;;;9.90;99.90;;;;;;6126007;23;20013;-92
2024/01/30 10:03:32;;;;;;;10.02;4.70;;;10.00;99.90;;;;;;6102556;23;20117;-91
2024/01/30 10:05:59;;;;;;;13.02;5.25;;;10.00;99.90;;;;;;6161387;23;20021;-92
2024/01/30 10:08:26;;;;;;;11.02;5.45;;;10.00;99.90;;;;;;6109423;23;20009;-91
2024/01/30 10:10:52;;;;;;;12.40;6.15;;;10.10;99.90;;;;;;6124501;23;20009;-91
2024/01/30 10:13:18;;;;;;;12.88;4.85;;;10.10;99.90;;;;;;6125567;23;20009;-92
2024/01/30 10:15:45;;;;;;;13.68;5.13;;;10.20;99.90;;;;;;6151877;23;20041;-91
2024/01/30 10:18:11;;;;;;;10.60;5.40;;;10.30;99.90;;;;;;6125198;23;20452;-91
2024/01/30 10:20:37;;;;;;;9.90;4.82;;;10.30;99.90;;;;;;6122976;23;20017;-91
2024/01/30 10:23:06;;;;;;;14.68;5.68;;;10.30;99.90;;;;;;6122579;23;20084;-91
2024/01/30 10:25:32;;;;;;;12.43;5.88;;;10.40;99.90;;;;;;6123178;23;20092;-90
2024/01/30 10:27:58;;;;;;;10.98;5.10;;;10.40;99.90;;;;;;6123032;23;20064;-90
2024/01/30 10:30:24;;;;;;;13.07;5.82;;;10.50;99.90;;;;;;6122938;23;20017;-91
2024/01/30 10:32:51;;;;;;;12.45;5.63;;;10.50;99.90;;;;;;6100130;23;20005;-91
2024/01/30 10:35:17;;;;;;;12.25;4.90;;;10.50;99.90;;;;;;6124654;23;20018;-92
2024/01/30 10:37:49;;;;;;;10.63;4.85;;;10.60;99.90;;;;;;6100514;23;20208;-92
2024/01/30 10:40:15;;;;;;;12.20;5.50;;;10.60;99.90;;;;;;6124931;23;20027;-91
2024/01/30 10:42:43;;;;;;;11.65;5.53;;;10.60;99.90;;;;;;6123019;23;20024;-91
2024/01/30 10:45:13;;;;;;;14.60;6.18;;;10.70;99.90;;;;;;6125174;23;20017;-91
2024/01/30 10:47:54;;;;;;;11.20;4.75;;;10.70;99.90;;;;;;6125436;23;20010;-92
2024/01/30 10:50:20;;;;;;;13.95;6.13;;;10.70;99.90;;;;;;6100991;23;20527;-91
2024/01/30 10:52:47;;;;;;;10.68;5.13;;;10.70;99.90;;;;;;6124669;23;20041;-92
2024/01/30 10:55:13;;;;;;;11.35;5.63;;;10.70;99.90;;;;;;6124879;23;20020;-91
2024/01/30 10:57:40;;;;;;;12.75;6.00;;;10.80;99.90;;;;;;6150817;23;20160;-92
2024/01/30 11:00:12;;;;;;;12.10;5.35;;;10.80;99.90;;;;;;6099420;23;20017;-91
2024/01/30 11:02:43;;;;;;;18.70;5.63;;;10.90;99.90;;;;;;6124573;23;20017;-92
2024/01/30 11:05:09;;;;;;;12.80;5.97;;;10.80;99.90;;;;;;6122794;23;20021;-91
2024/01/30 11:07:35;;;;;;;12.10;6.05;;;10.80;99.90;;;;;;6101418;23;20013;-92
2024/01/30 11:10:06;;;;;;;15.18;6.93;;;10.80;99.90;;;;;;6099790;23;20522;-91
2024/01/30 11:12:33;;;;;;;15.05;5.97;;;10.80;99.90;;;;;;6125062;23;20014;-91
2024/01/30 11:15:04;;;;;;;13.73;5.72;;;10.80;99.90;;;;;;6124537;23;20052;-91
2024/01/30 11:17:40;;;;;;;13.10;5.97;;;10.80;99.90;;;;;;6101017;23;20020;-91
2024/01/30 11:20:09;;;;;;;13.45;6.50;;;10.80;99.90;;;;;;6124808;23;20028;-91
2024/01/30 11:22:35;;;;;;;15.65;5.75;;;10.80;99.90;;;;;;6100962;23;20104;-92
2024/01/30 11:25:03;;;;;;;13.95;5.05;;;10.80;99.90;;;;;;6100719;23;20021;-92
2024/01/30 11:27:31;;;;;;;11.25;4.43;;;10.90;99.90;;;;;;6124404;23;20096;-92
2024/01/30 11:30:02;;;;;;;12.82;6.15;;;10.90;99.90;;;;;;6099939;23;20017;-93
2024/01/30 11:32:28;;;;;;;11.98;5.53;;;10.90;99.90;;;;;;6148842;23;20020;-92
2024/01/30 11:34:55;;;;;;;12.38;5.93;;;10.90;99.90;;;;;;6124871;23;20199;-91
2024/01/30 11:37:24;;;;;;;11.55;5.10;;;10.90;99.90;;;;;;6125489;23;20017;-91
2024/01/30 11:39:51;;;;;;;15.05;5.85;;;10.90;99.90;;;;;;6100614;23;20058;-91
2024/01/30 11:42:17;;;;;;;13.50;6.45;;;10.90;99.90;;;;;;6124649;23;20017;-92
2024/01/30 11:44:47;;;;;;;9.55;3.97;;;10.90;99.90;;;;;;6150779;23;20024;-90
2024/01/30 11:47:14;;;;;;;11.55;5.25;;;11.00;99.90;;;;;;6100444;23;20021;-91
2024/01/30 11:49:39;;;;;;;10.27;4.25;;;11.00;99.90;;;;;;6099991;23;20013;-92
2024/01/30 11:52:05;;;;;;;12.27;5.35;;;11.00;99.90;;;;;;6124978;23;20016;-91
2024/01/30 11:54:31;;;;;;;11.93;5.28;;;11.00;99.90;;;;;;6100202;23;20101;-91
2024/01/30 11:56:57;;;;;;;11.38;4.22;;;11.00;99.90;;;;;;6150846;23;20352;-92
2024/01/30 11:59:22;;;;;;;10.18;5.32;;;11.00;99.90;;;;;;6124662;23;20025;-91
2024/01/30 12:01:48;;;;;;;9.30;4.25;;;11.10;99.90;;;;;;6124298;23;20024;-91
2024/01/30 12:04:15;;;;;;;9.75;3.72;;;11.10;99.90;;;;;;6124468;23;20014;-91
2024/01/30 12:06:41;;;;;;;11.63;4.80;;;11.10;99.90;;;;;;6125117;23;20088;-92
2024/01/30 12:09:10;;;;;;;10.27;5.43;;;11.10;99.90;;;;;;6124483;23;20056;-91
2024/01/30 12:11:45;;;;;;;12.32;6.10;;;11.10;99.90;;;;;;6100978;23;20072;-91
2024/01/30 12:14:12;;;;;;;10.73;5.20;;;11.10;99.90;;;;;;6100344;23;20134;-92
2024/01/30 12:16:37;;;;;;;11.13;4.55;;;11.20;99.90;;;;;;6100265;23;20045;-92
2024/01/30 12:19:03;;;;;;;12.57;4.75;;;11.20;99.90;;;;;;6126011;23;20017;-92
2024/01/30 12:21:29;;;;;;;15.95;6.38;;;11.30;99.90;;;;;;6101864;23;20101;-92
2024/01/30 12:23:57;;;;;;;10.20;5.25;;;11.30;99.90;;;;;;6102486;23;20028;-92
2024/01/30 12:26:23;;;;;;;11.55;5.65;;;11.40;99.90;;;;;;6127783;23;20020;-93
2024/01/30 12:28:52;;;;;;;13.55;5.88;;;11.50;99.90;;;;;;6125630;23;20017;-92
2024/01/30 12:31:17;;;;;;;12.88;5.72;;;11.50;99.90;;;;;;6102305;23;20016;-92
2024/01/30 12:33:43;;;;;;;12.18;5.80;;;11.60;99.90;;;;;;6102209;23;20314;-92
2024/01/30 12:36:09;;;;;;;12.25;5.15;;;11.70;99.90;;;;;;6101460;23;20060;-92
2024/01/30 12:38:34;;;;;;;11.27;5.30;;;11.80;99.90;;;;;;6102343;23;20014;-92
2024/01/30 12:41:00;;;;;;;14.15;10.35;;;11.80;99.90;;;;;;6102223;23;20041;-92